Terminal Aerodrome Forecast
Issued by NWS

Home | Current Version | Previous Version | Text Only | Print | Product List | Glossary On
Versions: 1 2 3 4 5 6 7 8 9 10 11 12 13 14 15 16
000
FTUS43 KBIS 301700 RRA
TAFDIK
TAF
KDIK 301741Z 3018/3118 25007KT P6SM SCT150
     FM302100 33009KT P6SM SCT150
     FM310900 07008KT P6SM BKN012=

USA.gov is the U.S. government's official web portal to all federal, state and local government web resources and services.